CheckWX is a tool to help pilots better visualize weather data.  It is not intended as a substitute for an official pre-flight weather briefing.

04:12:48 UTC

KPQI METAR
Northern Maine Regional Arpt at Presque Is Airport
Presque Isle, Maine, USA
Current

17 mins ago

KPQI 260356Z AUTO 19010KT 10SM BKN085 OVC120 16/04 A2992 RMK AO2 SLP156 T01610044
Observed
May-26 @ 03:56 UTC
Wind
  • 190° at 10 KTS
Visibility
10 SM
Flight Rules
VFR
Cloud Levels
  • Broken at 8,500' AGL
  • Overcast at 12,000' AGL
Temperature
16°C / 61°F
Dewpoint
C / 39°F
Humidity
45%
Altimeter
29.92" Hg
Pressure
1013.22 hPa
Previous

1 hour ago

KPQI 260256Z AUTO 20011KT 10SM CLR 17/06 A2993 RMK AO2 SLP160 T01670056 56007
Observed
May-26 @ 02:56 UTC
Wind
  • 200° at 11 KTS
Visibility
10 SM
Flight Rules
VFR
Cloud Levels
  • Clear skies
Temperature
17°C / 63°F
Dewpoint
C / 43°F
Humidity
49%
Altimeter
29.93" Hg
Pressure
1013.52 hPa
Previous

2 hours ago

KPQI 260156Z AUTO 18011G18KT 10SM CLR 18/06 A2993 RMK AO2 SLP160 T01780056
Observed
May-26 @ 01:56 UTC
Wind
  • 180° at 11 KTS
  • Gusting to 18 KTS
Visibility
10 SM
Flight Rules
VFR
Cloud Levels
  • Clear skies
Temperature
18°C / 64°F
Dewpoint
C / 43°F
Humidity
46%
Altimeter
29.93" Hg
Pressure
1013.52 hPa